sensor_id;sensor_type;location;lat;lon;timestamp;P1;durP1;ratioP1;P2;durP2;ratioP2
6197;SDS011;3132;42.622;23.328;2023-09-07T00:01:49;17.07;;;15.67;;
6197;SDS011;3132;42.622;23.328;2023-09-07T00:04:17;17.73;;;15.17;;
6197;SDS011;3132;42.622;23.328;2023-09-07T00:06:43;19.27;;;16.27;;
6197;SDS011;3132;42.622;23.328;2023-09-07T00:09:09;16.60;;;15.20;;
6197;SDS011;3132;42.622;23.328;2023-09-07T00:11:36;16.67;;;15.00;;
6197;SDS011;3132;42.622;23.328;2023-09-07T00:14:02;16.77;;;15.10;;
6197;SDS011;3132;42.622;23.328;2023-09-07T00:16:27;17.73;;;16.13;;
6197;SDS011;3132;42.622;23.328;2023-09-07T00:18:53;17.90;;;16.17;;
6197;SDS011;3132;42.622;23.328;2023-09-07T00:21:18;16.97;;;15.17;;
6197;SDS011;3132;42.622;23.328;2023-09-07T00:23:44;18.20;;;16.37;;
6197;SDS011;3132;42.622;23.328;2023-09-07T00:26:09;17.77;;;16.00;;
6197;SDS011;3132;42.622;23.328;2023-09-07T00:28:37;18.87;;;16.83;;
6197;SDS011;3132;42.622;23.328;2023-09-07T00:31:03;19.43;;;17.63;;
6197;SDS011;3132;42.622;23.328;2023-09-07T00:33:28;24.00;;;19.07;;
6197;SDS011;3132;42.622;23.328;2023-09-07T00:35:54;20.57;;;18.70;;
6197;SDS011;3132;42.622;23.328;2023-09-07T00:38:19;21.10;;;19.00;;
6197;SDS011;3132;42.622;23.328;2023-09-07T00:40:45;21.13;;;18.93;;
6197;SDS011;3132;42.622;23.328;2023-09-07T00:43:10;21.80;;;19.80;;
6197;SDS011;3132;42.622;23.328;2023-09-07T00:45:36;22.10;;;20.00;;
6197;SDS011;3132;42.622;23.328;2023-09-07T00:48:03;22.87;;;20.50;;
6197;SDS011;3132;42.622;23.328;2023-09-07T00:50:29;24.43;;;21.93;;
6197;SDS011;3132;42.622;23.328;2023-09-07T00:52:55;23.60;;;21.07;;
6197;SDS011;3132;42.622;23.328;2023-09-07T00:55:20;25.17;;;22.47;;
6197;SDS011;3132;42.622;23.328;2023-09-07T00:57:47;23.57;;;21.13;;
6197;SDS011;3132;42.622;23.328;2023-09-07T01:00:13;24.57;;;21.73;;
6197;SDS011;3132;42.622;23.328;2023-09-07T01:02:38;23.17;;;20.97;;
6197;SDS011;3132;42.622;23.328;2023-09-07T01:05:04;25.33;;;22.73;;
6197;SDS011;3132;42.622;23.328;2023-09-07T01:09:56;28.83;;;24.27;;
6197;SDS011;3132;42.622;23.328;2023-09-07T01:12:22;28.50;;;25.57;;
6197;SDS011;3132;42.622;23.328;2023-09-07T01:14:48;26.47;;;23.47;;
6197;SDS011;3132;42.622;23.328;2023-09-07T01:17:13;26.67;;;23.03;;
6197;SDS011;3132;42.622;23.328;2023-09-07T01:19:39;28.07;;;25.03;;
6197;SDS011;3132;42.622;23.328;2023-09-07T01:22:08;29.60;;;23.17;;
6197;SDS011;3132;42.622;23.328;2023-09-07T01:24:34;29.20;;;24.20;;
6197;SDS011;3132;42.622;23.328;2023-09-07T01:27:02;27.03;;;24.13;;
6197;SDS011;3132;42.622;23.328;2023-09-07T01:29:28;29.20;;;24.63;;
6197;SDS011;3132;42.622;23.328;2023-09-07T01:31:55;28.53;;;25.57;;
6197;SDS011;3132;42.622;23.328;2023-09-07T01:34:22;28.50;;;25.47;;
6197;SDS011;3132;42.622;23.328;2023-09-07T01:36:48;26.77;;;23.97;;
6197;SDS011;3132;42.622;23.328;2023-09-07T01:39:14;27.23;;;24.40;;
6197;SDS011;3132;42.622;23.328;2023-09-07T01:41:39;30.10;;;25.10;;
6197;SDS011;3132;42.622;23.328;2023-09-07T01:44:04;27.43;;;24.53;;
6197;SDS011;3132;42.622;23.328;2023-09-07T01:46:30;25.97;;;23.20;;
6197;SDS011;3132;42.622;23.328;2023-09-07T01:48:55;26.27;;;23.43;;
6197;SDS011;3132;42.622;23.328;2023-09-07T01:51:20;26.80;;;24.13;;
6197;SDS011;3132;42.622;23.328;2023-09-07T01:53:49;31.07;;;22.97;;
6197;SDS011;3132;42.622;23.328;2023-09-07T01:56:16;28.33;;;23.63;;
6197;SDS011;3132;42.622;23.328;2023-09-07T01:58:42;26.00;;;23.20;;
6197;SDS011;3132;42.622;23.328;2023-09-07T02:01:09;27.53;;;23.80;;
6197;SDS011;3132;42.622;23.328;2023-09-07T02:03:55;25.63;;;23.03;;
6197;SDS011;3132;42.622;23.328;2023-09-07T02:06:20;25.13;;;22.40;;
6197;SDS011;3132;42.622;23.328;2023-09-07T02:08:46;24.23;;;21.90;;
6197;SDS011;3132;42.622;23.328;2023-09-07T02:11:11;25.40;;;22.80;;
6197;SDS011;3132;42.622;23.328;2023-09-07T02:13:37;24.37;;;21.87;;
6197;SDS011;3132;42.622;23.328;2023-09-07T02:16:03;23.33;;;21.20;;
6197;SDS011;3132;42.622;23.328;2023-09-07T02:18:30;26.73;;;20.73;;
6197;SDS011;3132;42.622;23.328;2023-09-07T02:21:00;23.30;;;20.80;;
6197;SDS011;3132;42.622;23.328;2023-09-07T02:23:27;22.80;;;20.53;;
6197;SDS011;3132;42.622;23.328;2023-09-07T02:25:52;20.83;;;18.93;;
6197;SDS011;3132;42.622;23.328;2023-09-07T02:28:17;21.70;;;19.63;;
6197;SDS011;3132;42.622;23.328;2023-09-07T02:30:43;21.33;;;19.27;;
6197;SDS011;3132;42.622;23.328;2023-09-07T02:33:08;23.80;;;19.50;;
6197;SDS011;3132;42.622;23.328;2023-09-07T02:35:36;21.00;;;18.63;;
6197;SDS011;3132;42.622;23.328;2023-09-07T02:38:02;21.63;;;19.43;;
6197;SDS011;3132;42.622;23.328;2023-09-07T02:40:27;23.00;;;20.67;;
6197;SDS011;3132;42.622;23.328;2023-09-07T02:42:53;21.80;;;19.53;;
6197;SDS011;3132;42.622;23.328;2023-09-07T02:45:18;23.43;;;21.00;;
6197;SDS011;3132;42.622;23.328;2023-09-07T02:47:43;22.60;;;20.20;;
6197;SDS011;3132;42.622;23.328;2023-09-07T02:50:14;21.67;;;19.57;;
6197;SDS011;3132;42.622;23.328;2023-09-07T02:52:46;22.13;;;19.63;;
6197;SDS011;3132;42.622;23.328;2023-09-07T02:55:11;21.73;;;19.50;;
6197;SDS011;3132;42.622;23.328;2023-09-07T02:57:36;20.73;;;18.63;;
6197;SDS011;3132;42.622;23.328;2023-09-07T03:00:02;21.97;;;19.03;;
6197;SDS011;3132;42.622;23.328;2023-09-07T03:02:34;22.07;;;19.97;;
6197;SDS011;3132;42.622;23.328;2023-09-07T03:05:00;19.87;;;17.93;;
6197;SDS011;3132;42.622;23.328;2023-09-07T03:07:26;21.80;;;19.60;;
6197;SDS011;3132;42.622;23.328;2023-09-07T03:09:52;21.63;;;18.53;;
6197;SDS011;3132;42.622;23.328;2023-09-07T03:12:17;22.27;;;19.20;;
6197;SDS011;3132;42.622;23.328;2023-09-07T03:14:43;22.13;;;20.00;;
6197;SDS011;3132;42.622;23.328;2023-09-07T03:17:09;22.53;;;20.20;;
6197;SDS011;3132;42.622;23.328;2023-09-07T03:19:35;21.30;;;19.20;;
6197;SDS011;3132;42.622;23.328;2023-09-07T03:22:02;20.30;;;18.27;;
6197;SDS011;3132;42.622;23.328;2023-09-07T03:24:28;23.67;;;20.00;;
6197;SDS011;3132;42.622;23.328;2023-09-07T03:26:53;22.37;;;19.27;;
6197;SDS011;3132;42.622;23.328;2023-09-07T03:29:19;22.63;;;19.33;;
6197;SDS011;3132;42.622;23.328;2023-09-07T03:31:45;21.13;;;18.97;;
6197;SDS011;3132;42.622;23.328;2023-09-07T03:34:10;23.33;;;21.13;;
6197;SDS011;3132;42.622;23.328;2023-09-07T03:36:35;23.67;;;21.10;;
6197;SDS011;3132;42.622;23.328;2023-09-07T03:39:01;23.17;;;20.77;;
6197;SDS011;3132;42.622;23.328;2023-09-07T03:41:27;24.33;;;21.93;;
6197;SDS011;3132;42.622;23.328;2023-09-07T03:43:55;29.40;;;21.53;;
6197;SDS011;3132;42.622;23.328;2023-09-07T03:46:21;25.27;;;21.77;;
6197;SDS011;3132;42.622;23.328;2023-09-07T03:48:46;24.97;;;19.00;;
6197;SDS011;3132;42.622;23.328;2023-09-07T03:51:12;22.37;;;19.97;;
6197;SDS011;3132;42.622;23.328;2023-09-07T03:53:38;22.33;;;20.13;;
6197;SDS011;3132;42.622;23.328;2023-09-07T03:56:04;21.70;;;19.60;;
6197;SDS011;3132;42.622;23.328;2023-09-07T03:58:29;20.37;;;18.57;;
6197;SDS011;3132;42.622;23.328;2023-09-07T04:00:55;18.70;;;16.70;;
6197;SDS011;3132;42.622;23.328;2023-09-07T04:03:23;18.07;;;16.37;;
6197;SDS011;3132;42.622;23.328;2023-09-07T04:05:50;17.43;;;15.73;;
6197;SDS011;3132;42.622;23.328;2023-09-07T04:08:15;17.37;;;15.97;;
6197;SDS011;3132;42.622;23.328;2023-09-07T04:10:41;18.47;;;16.77;;
6197;SDS011;3132;42.622;23.328;2023-09-07T04:13:06;17.77;;;16.00;;
6197;SDS011;3132;42.622;23.328;2023-09-07T04:15:33;17.17;;;15.67;;
6197;SDS011;3132;42.622;23.328;2023-09-07T04:17:59;17.17;;;15.53;;
6197;SDS011;3132;42.622;23.328;2023-09-07T04:20:24;18.13;;;16.37;;
6197;SDS011;3132;42.622;23.328;2023-09-07T04:22:51;17.33;;;15.70;;
6197;SDS011;3132;42.622;23.328;2023-09-07T04:25:16;18.73;;;16.10;;
6197;SDS011;3132;42.622;23.328;2023-09-07T04:27:42;17.97;;;16.07;;
6197;SDS011;3132;42.622;23.328;2023-09-07T04:30:07;17.43;;;15.83;;
6197;SDS011;3132;42.622;23.328;2023-09-07T04:32:33;17.50;;;16.10;;
6197;SDS011;3132;42.622;23.328;2023-09-07T04:34:58;16.93;;;15.63;;
6197;SDS011;3132;42.622;23.328;2023-09-07T04:37:24;17.33;;;15.70;;
6197;SDS011;3132;42.622;23.328;2023-09-07T04:39:50;17.13;;;15.57;;
6197;SDS011;3132;42.622;23.328;2023-09-07T04:42:20;16.13;;;14.83;;
6197;SDS011;3132;42.622;23.328;2023-09-07T04:44:46;16.17;;;14.63;;
6197;SDS011;3132;42.622;23.328;2023-09-07T04:47:12;16.17;;;14.77;;
6197;SDS011;3132;42.622;23.328;2023-09-07T04:49:37;16.37;;;14.87;;
6197;SDS011;3132;42.622;23.328;2023-09-07T04:52:03;16.77;;;15.33;;
6197;SDS011;3132;42.622;23.328;2023-09-07T04:54:29;17.27;;;15.80;;
6197;SDS011;3132;42.622;23.328;2023-09-07T04:56:54;16.87;;;15.17;;
6197;SDS011;3132;42.622;23.328;2023-09-07T04:59:19;16.53;;;14.90;;
6197;SDS011;3132;42.622;23.328;2023-09-07T05:01:45;17.13;;;15.53;;
6197;SDS011;3132;42.622;23.328;2023-09-07T05:04:10;16.97;;;15.43;;
6197;SDS011;3132;42.622;23.328;2023-09-07T05:06:36;16.93;;;15.43;;
6197;SDS011;3132;42.622;23.328;2023-09-07T05:09:03;15.33;;;13.93;;
6197;SDS011;3132;42.622;23.328;2023-09-07T05:11:29;16.63;;;15.17;;
6197;SDS011;3132;42.622;23.328;2023-09-07T05:13:54;16.20;;;14.80;;
6197;SDS011;3132;42.622;23.328;2023-09-07T05:16:19;16.03;;;14.40;;
6197;SDS011;3132;42.622;23.328;2023-09-07T05:18:45;14.33;;;13.27;;
6197;SDS011;3132;42.622;23.328;2023-09-07T05:21:14;15.90;;;14.43;;
6197;SDS011;3132;42.622;23.328;2023-09-07T05:23:40;15.47;;;13.97;;
6197;SDS011;3132;42.622;23.328;2023-09-07T05:26:05;15.07;;;13.73;;
6197;SDS011;3132;42.622;23.328;2023-09-07T05:28:31;14.20;;;12.90;;
6197;SDS011;3132;42.622;23.328;2023-09-07T05:30:56;14.03;;;12.90;;
6197;SDS011;3132;42.622;23.328;2023-09-07T05:33:21;15.10;;;13.80;;
6197;SDS011;3132;42.622;23.328;2023-09-07T05:35:47;15.10;;;14.00;;
6197;SDS011;3132;42.622;23.328;2023-09-07T05:38:12;15.20;;;14.00;;
6197;SDS011;3132;42.622;23.328;2023-09-07T05:40:39;15.93;;;14.60;;
6197;SDS011;3132;42.622;23.328;2023-09-07T05:43:06;16.70;;;13.70;;
6197;SDS011;3132;42.622;23.328;2023-09-07T05:45:36;14.93;;;13.73;;
6197;SDS011;3132;42.622;23.328;2023-09-07T05:48:03;13.63;;;12.53;;
6197;SDS011;3132;42.622;23.328;2023-09-07T05:50:34;14.45;;;13.23;;
6197;SDS011;3132;42.622;23.328;2023-09-07T05:53:01;14.47;;;13.07;;
6197;SDS011;3132;42.622;23.328;2023-09-07T05:55:27;17.03;;;13.87;;
6197;SDS011;3132;42.622;23.328;2023-09-07T05:57:53;15.10;;;13.63;;
6197;SDS011;3132;42.622;23.328;2023-09-07T06:00:20;14.57;;;13.30;;
6197;SDS011;3132;42.622;23.328;2023-09-07T06:02:45;14.40;;;13.10;;
6197;SDS011;3132;42.622;23.328;2023-09-07T06:05:11;12.87;;;11.90;;
6197;SDS011;3132;42.622;23.328;2023-09-07T06:07:36;13.63;;;12.10;;
6197;SDS011;3132;42.622;23.328;2023-09-07T06:10:02;13.45;;;12.52;;
6197;SDS011;3132;42.622;23.328;2023-09-07T06:12:30;15.45;;;13.00;;
6197;SDS011;3132;42.622;23.328;2023-09-07T06:14:56;14.43;;;13.32;;
6197;SDS011;3132;42.622;23.328;2023-09-07T06:17:21;13.60;;;12.48;;
6197;SDS011;3132;42.622;23.328;2023-09-07T06:19:46;16.85;;;12.50;;
6197;SDS011;3132;42.622;23.328;2023-09-07T06:22:12;13.93;;;12.82;;
6197;SDS011;3132;42.622;23.328;2023-09-07T06:24:37;14.70;;;13.07;;
6197;SDS011;3132;42.622;23.328;2023-09-07T06:27:03;15.75;;;14.30;;
6197;SDS011;3132;42.622;23.328;2023-09-07T06:29:28;16.55;;;14.88;;
6197;SDS011;3132;42.622;23.328;2023-09-07T06:31:54;15.18;;;13.75;;
6197;SDS011;3132;42.622;23.328;2023-09-07T06:34:19;15.07;;;13.73;;
6197;SDS011;3132;42.622;23.328;2023-09-07T06:36:44;14.85;;;13.60;;
6197;SDS011;3132;42.622;23.328;2023-09-07T06:39:10;19.02;;;13.18;;
6197;SDS011;3132;42.622;23.328;2023-09-07T06:41:35;13.23;;;12.27;;
6197;SDS011;3132;42.622;23.328;2023-09-07T06:44:01;13.55;;;12.18;;
6197;SDS011;3132;42.622;23.328;2023-09-07T06:46:26;14.13;;;12.95;;
6197;SDS011;3132;42.622;23.328;2023-09-07T06:48:52;14.55;;;13.05;;
6197;SDS011;3132;42.622;23.328;2023-09-07T06:51:17;13.25;;;11.88;;
6197;SDS011;3132;42.622;23.328;2023-09-07T06:53:43;13.43;;;12.13;;
6197;SDS011;3132;42.622;23.328;2023-09-07T06:56:08;13.95;;;12.75;;
6197;SDS011;3132;42.622;23.328;2023-09-07T06:58:33;14.98;;;13.48;;
6197;SDS011;3132;42.622;23.328;2023-09-07T07:00:59;13.70;;;12.40;;
6197;SDS011;3132;42.622;23.328;2023-09-07T07:03:26;13.02;;;11.82;;
6197;SDS011;3132;42.622;23.328;2023-09-07T07:05:52;14.20;;;12.90;;
6197;SDS011;3132;42.622;23.328;2023-09-07T07:08:18;15.38;;;12.68;;
6197;SDS011;3132;42.622;23.328;2023-09-07T07:10:43;15.70;;;14.30;;
6197;SDS011;3132;42.622;23.328;2023-09-07T07:13:09;13.90;;;12.70;;
6197;SDS011;3132;42.622;23.328;2023-09-07T07:15:34;15.40;;;14.10;;
6197;SDS011;3132;42.622;23.328;2023-09-07T07:18:00;14.63;;;13.20;;
6197;SDS011;3132;42.622;23.328;2023-09-07T07:20:26;16.10;;;14.52;;
6197;SDS011;3132;42.622;23.328;2023-09-07T07:22:52;14.52;;;13.40;;
6197;SDS011;3132;42.622;23.328;2023-09-07T07:25:17;15.18;;;13.93;;
6197;SDS011;3132;42.622;23.328;2023-09-07T07:27:42;14.10;;;12.98;;
6197;SDS011;3132;42.622;23.328;2023-09-07T07:30:08;15.88;;;14.40;;
6197;SDS011;3132;42.622;23.328;2023-09-07T07:32:34;17.50;;;13.65;;
6197;SDS011;3132;42.622;23.328;2023-09-07T07:34:59;14.25;;;13.05;;
6197;SDS011;3132;42.622;23.328;2023-09-07T07:37:25;14.55;;;12.98;;
6197;SDS011;3132;42.622;23.328;2023-09-07T07:39:50;14.15;;;13.05;;
6197;SDS011;3132;42.622;23.328;2023-09-07T07:42:16;14.73;;;13.40;;
6197;SDS011;3132;42.622;23.328;2023-09-07T07:44:43;20.58;;;15.20;;
6197;SDS011;3132;42.622;23.328;2023-09-07T07:47:09;17.13;;;15.68;;
6197;SDS011;3132;42.622;23.328;2023-09-07T07:49:34;16.00;;;14.32;;
6197;SDS011;3132;42.622;23.328;2023-09-07T07:52:07;16.08;;;14.15;;
6197;SDS011;3132;42.622;23.328;2023-09-07T07:54:36;16.77;;;15.07;;
6197;SDS011;3132;42.622;23.328;2023-09-07T07:57:01;20.15;;;16.15;;
6197;SDS011;3132;42.622;23.328;2023-09-07T07:59:27;16.30;;;15.00;;
6197;SDS011;3132;42.622;23.328;2023-09-07T08:01:52;16.80;;;15.20;;
6197;SDS011;3132;42.622;23.328;2023-09-07T08:04:17;16.88;;;15.30;;
6197;SDS011;3132;42.622;23.328;2023-09-07T08:06:43;16.70;;;15.05;;
6197;SDS011;3132;42.622;23.328;2023-09-07T08:09:08;16.38;;;14.85;;
6197;SDS011;3132;42.622;23.328;2023-09-07T08:11:34;16.67;;;15.25;;
6197;SDS011;3132;42.622;23.328;2023-09-07T08:13:59;15.13;;;13.88;;
6197;SDS011;3132;42.622;23.328;2023-09-07T08:16:24;16.27;;;14.77;;
6197;SDS011;3132;42.622;23.328;2023-09-07T08:18:50;16.33;;;14.82;;
6197;SDS011;3132;42.622;23.328;2023-09-07T08:21:15;16.40;;;14.90;;
6197;SDS011;3132;42.622;23.328;2023-09-07T08:23:41;15.85;;;14.32;;
6197;SDS011;3132;42.622;23.328;2023-09-07T08:26:06;15.70;;;14.10;;
6197;SDS011;3132;42.622;23.328;2023-09-07T08:28:34;18.35;;;14.77;;
6197;SDS011;3132;42.622;23.328;2023-09-07T08:30:59;15.23;;;13.82;;
6197;SDS011;3132;42.622;23.328;2023-09-07T08:33:25;14.77;;;13.30;;
6197;SDS011;3132;42.622;23.328;2023-09-07T08:35:55;14.35;;;13.00;;
6197;SDS011;3132;42.622;23.328;2023-09-07T08:38:22;14.38;;;12.85;;
6197;SDS011;3132;42.622;23.328;2023-09-07T08:40:51;13.93;;;12.55;;
6197;SDS011;3132;42.622;23.328;2023-09-07T08:43:19;14.85;;;12.57;;
6197;SDS011;3132;42.622;23.328;2023-09-07T08:45:46;14.82;;;13.43;;
6197;SDS011;3132;42.622;23.328;2023-09-07T08:48:16;13.73;;;12.63;;
6197;SDS011;3132;42.622;23.328;2023-09-07T08:50:44;13.75;;;12.60;;
6197;SDS011;3132;42.622;23.328;2023-09-07T08:53:16;13.60;;;12.18;;
6197;SDS011;3132;42.622;23.328;2023-09-07T08:55:44;14.00;;;12.80;;
6197;SDS011;3132;42.622;23.328;2023-09-07T08:58:09;13.77;;;12.57;;
6197;SDS011;3132;42.622;23.328;2023-09-07T09:00:35;15.30;;;13.85;;
6197;SDS011;3132;42.622;23.328;2023-09-07T09:03:02;15.25;;;13.70;;
6197;SDS011;3132;42.622;23.328;2023-09-07T09:05:28;14.85;;;13.38;;
6197;SDS011;3132;42.622;23.328;2023-09-07T09:08:04;13.80;;;12.65;;
6197;SDS011;3132;42.622;23.328;2023-09-07T09:10:30;15.27;;;13.32;;
6197;SDS011;3132;42.622;23.328;2023-09-07T09:12:56;13.32;;;12.02;;
6197;SDS011;3132;42.622;23.328;2023-09-07T09:15:22;14.40;;;13.10;;
6197;SDS011;3132;42.622;23.328;2023-09-07T09:17:47;14.93;;;13.60;;
6197;SDS011;3132;42.622;23.328;2023-09-07T09:20:22;16.38;;;12.40;;
6197;SDS011;3132;42.622;23.328;2023-09-07T09:22:52;13.45;;;12.05;;
6197;SDS011;3132;42.622;23.328;2023-09-07T09:25:18;12.82;;;11.68;;
6197;SDS011;3132;42.622;23.328;2023-09-07T09:27:44;12.93;;;11.73;;
6197;SDS011;3132;42.622;23.328;2023-09-07T09:30:10;14.60;;;11.85;;
6197;SDS011;3132;42.622;23.328;2023-09-07T09:32:35;18.70;;;13.35;;
6197;SDS011;3132;42.622;23.328;2023-09-07T09:35:01;13.00;;;11.90;;
6197;SDS011;3132;42.622;23.328;2023-09-07T09:37:28;13.63;;;12.43;;
6197;SDS011;3132;42.622;23.328;2023-09-07T09:39:53;13.75;;;12.55;;
6197;SDS011;3132;42.622;23.328;2023-09-07T09:42:21;13.88;;;12.38;;
6197;SDS011;3132;42.622;23.328;2023-09-07T09:44:48;13.68;;;12.63;;
6197;SDS011;3132;42.622;23.328;2023-09-07T09:47:14;13.57;;;12.55;;
6197;SDS011;3132;42.622;23.328;2023-09-07T09:49:40;12.90;;;11.65;;
6197;SDS011;3132;42.622;23.328;2023-09-07T09:52:06;13.15;;;11.90;;
6197;SDS011;3132;42.622;23.328;2023-09-07T09:54:33;13.88;;;12.68;;
6197;SDS011;3132;42.622;23.328;2023-09-07T09:57:00;13.63;;;12.13;;
6197;SDS011;3132;42.622;23.328;2023-09-07T09:59:26;13.13;;;12.02;;
6197;SDS011;3132;42.622;23.328;2023-09-07T10:01:52;12.95;;;11.75;;
6197;SDS011;3132;42.622;23.328;2023-09-07T10:04:19;12.65;;;11.55;;
6197;SDS011;3132;42.622;23.328;2023-09-07T10:06:54;13.48;;;12.18;;
6197;SDS011;3132;42.622;23.328;2023-09-07T10:09:21;10.93;;;10.13;;
6197;SDS011;3132;42.622;23.328;2023-09-07T10:11:51;11.52;;;10.65;;
6197;SDS011;3132;42.622;23.328;2023-09-07T10:14:18;11.40;;;10.50;;
6197;SDS011;3132;42.622;23.328;2023-09-07T10:16:44;13.05;;;11.88;;
6197;SDS011;3132;42.622;23.328;2023-09-07T10:19:29;12.45;;;11.27;;
6197;SDS011;3132;42.622;23.328;2023-09-07T10:21:55;12.02;;;11.13;;
6197;SDS011;3132;42.622;23.328;2023-09-07T10:27:04;11.73;;;10.75;;
6197;SDS011;3132;42.622;23.328;2023-09-07T10:29:50;12.40;;;11.30;;
6197;SDS011;3132;42.622;23.328;2023-09-07T10:32:19;11.93;;;10.77;;
6197;SDS011;3132;42.622;23.328;2023-09-07T10:34:44;12.65;;;11.55;;
6197;SDS011;3132;42.622;23.328;2023-09-07T10:37:10;11.68;;;10.55;;
6197;SDS011;3132;42.622;23.328;2023-09-07T10:39:38;11.60;;;10.73;;
6197;SDS011;3132;42.622;23.328;2023-09-07T10:42:04;11.60;;;10.73;;
6197;SDS011;3132;42.622;23.328;2023-09-07T10:44:30;12.63;;;11.35;;
6197;SDS011;3132;42.622;23.328;2023-09-07T10:46:58;10.25;;;9.55;;
6197;SDS011;3132;42.622;23.328;2023-09-07T10:49:24;11.57;;;10.77;;
6197;SDS011;3132;42.622;23.328;2023-09-07T10:51:50;12.30;;;11.18;;
6197;SDS011;3132;42.622;23.328;2023-09-07T10:54:23;11.88;;;10.88;;
6197;SDS011;3132;42.622;23.328;2023-09-07T10:56:49;12.55;;;11.48;;
6197;SDS011;3132;42.622;23.328;2023-09-07T10:59:15;12.07;;;11.18;;
6197;SDS011;3132;42.622;23.328;2023-09-07T11:01:44;14.75;;;13.70;;
6197;SDS011;3132;42.622;23.328;2023-09-07T11:04:10;12.73;;;11.70;;
6197;SDS011;3132;42.622;23.328;2023-09-07T11:06:36;14.68;;;13.20;;
6197;SDS011;3132;42.622;23.328;2023-09-07T11:09:03;12.15;;;11.25;;
6197;SDS011;3132;42.622;23.328;2023-09-07T11:11:31;13.25;;;12.15;;
6197;SDS011;3132;42.622;23.328;2023-09-07T11:14:01;12.10;;;11.20;;
6197;SDS011;3132;42.622;23.328;2023-09-07T11:16:30;13.93;;;12.52;;
6197;SDS011;3132;42.622;23.328;2023-09-07T11:18:55;15.40;;;11.80;;
6197;SDS011;3132;42.622;23.328;2023-09-07T11:21:21;13.30;;;12.15;;
6197;SDS011;3132;42.622;23.328;2023-09-07T11:23:47;12.20;;;11.15;;
6197;SDS011;3132;42.622;23.328;2023-09-07T11:26:14;13.98;;;12.88;;
6197;SDS011;3132;42.622;23.328;2023-09-07T11:28:42;14.95;;;12.10;;
6197;SDS011;3132;42.622;23.328;2023-09-07T11:31:09;13.93;;;12.63;;
6197;SDS011;3132;42.622;23.328;2023-09-07T11:33:35;13.70;;;12.60;;
6197;SDS011;3132;42.622;23.328;2023-09-07T11:36:00;14.75;;;12.20;;
6197;SDS011;3132;42.622;23.328;2023-09-07T11:38:29;12.77;;;11.75;;
6197;SDS011;3132;42.622;23.328;2023-09-07T11:41:00;13.75;;;12.38;;
6197;SDS011;3132;42.622;23.328;2023-09-07T11:43:25;13.35;;;12.20;;
6197;SDS011;3132;42.622;23.328;2023-09-07T11:45:51;12.63;;;11.68;;
6197;SDS011;3132;42.622;23.328;2023-09-07T11:48:16;13.88;;;12.70;;
6197;SDS011;3132;42.622;23.328;2023-09-07T11:50:42;15.80;;;14.43;;
6197;SDS011;3132;42.622;23.328;2023-09-07T11:53:08;12.25;;;11.15;;
6197;SDS011;3132;42.622;23.328;2023-09-07T11:55:33;14.68;;;13.38;;
6197;SDS011;3132;42.622;23.328;2023-09-07T11:58:00;12.82;;;11.93;;
6197;SDS011;3132;42.622;23.328;2023-09-07T12:00:29;13.50;;;12.20;;
6197;SDS011;3132;42.622;23.328;2023-09-07T12:02:56;12.73;;;11.82;;
6197;SDS011;3132;42.622;23.328;2023-09-07T12:05:22;12.93;;;11.70;;
6197;SDS011;3132;42.622;23.328;2023-09-07T12:07:48;11.95;;;11.05;;
6197;SDS011;3132;42.622;23.328;2023-09-07T12:10:13;11.90;;;10.90;;
6197;SDS011;3132;42.622;23.328;2023-09-07T12:12:39;11.68;;;10.60;;
6197;SDS011;3132;42.622;23.328;2023-09-07T12:15:05;11.30;;;10.30;;
6197;SDS011;3132;42.622;23.328;2023-09-07T12:17:31;12.35;;;11.32;;
6197;SDS011;3132;42.622;23.328;2023-09-07T12:19:56;11.82;;;10.93;;
6197;SDS011;3132;42.622;23.328;2023-09-07T12:22:22;14.27;;;10.88;;
6197;SDS011;3132;42.622;23.328;2023-09-07T12:24:47;11.88;;;10.82;;
6197;SDS011;3132;42.622;23.328;2023-09-07T12:27:13;11.98;;;11.05;;
6197;SDS011;3132;42.622;23.328;2023-09-07T12:29:38;19.75;;;12.15;;
6197;SDS011;3132;42.622;23.328;2023-09-07T12:32:04;12.05;;;11.00;;
6197;SDS011;3132;42.622;23.328;2023-09-07T12:34:30;11.27;;;10.27;;
6197;SDS011;3132;42.622;23.328;2023-09-07T12:36:55;11.07;;;10.07;;
6197;SDS011;3132;42.622;23.328;2023-09-07T12:39:20;11.52;;;10.63;;
6197;SDS011;3132;42.622;23.328;2023-09-07T12:41:46;11.80;;;10.77;;
6197;SDS011;3132;42.622;23.328;2023-09-07T12:44:11;12.35;;;10.88;;
6197;SDS011;3132;42.622;23.328;2023-09-07T12:46:37;12.43;;;11.35;;
6197;SDS011;3132;42.622;23.328;2023-09-07T12:49:03;11.60;;;10.57;;
6197;SDS011;3132;42.622;23.328;2023-09-07T12:51:29;11.80;;;10.57;;
6197;SDS011;3132;42.622;23.328;2023-09-07T12:53:54;11.68;;;10.68;;
6197;SDS011;3132;42.622;23.328;2023-09-07T12:56:20;11.68;;;10.88;;
6197;SDS011;3132;42.622;23.328;2023-09-07T12:58:45;13.00;;;11.88;;
6197;SDS011;3132;42.622;23.328;2023-09-07T13:01:11;11.05;;;10.05;;
6197;SDS011;3132;42.622;23.328;2023-09-07T13:03:40;12.00;;;10.93;;
6197;SDS011;3132;42.622;23.328;2023-09-07T13:06:05;12.13;;;11.23;;
6197;SDS011;3132;42.622;23.328;2023-09-07T13:08:30;13.50;;;10.55;;
6197;SDS011;3132;42.622;23.328;2023-09-07T13:10:56;11.30;;;10.32;;
6197;SDS011;3132;42.622;23.328;2023-09-07T13:13:24;13.95;;;11.48;;
6197;SDS011;3132;42.622;23.328;2023-09-07T13:15:54;11.20;;;10.00;;
6197;SDS011;3132;42.622;23.328;2023-09-07T13:18:20;9.95;;;9.27;;
6197;SDS011;3132;42.622;23.328;2023-09-07T13:20:46;10.30;;;9.32;;
6197;SDS011;3132;42.622;23.328;2023-09-07T13:23:13;10.82;;;9.88;;
6197;SDS011;3132;42.622;23.328;2023-09-07T13:25:38;12.10;;;11.05;;
6197;SDS011;3132;42.622;23.328;2023-09-07T13:28:04;11.70;;;10.70;;
6197;SDS011;3132;42.622;23.328;2023-09-07T13:30:29;11.55;;;10.75;;
6197;SDS011;3132;42.622;23.328;2023-09-07T13:32:55;11.57;;;10.75;;
6197;SDS011;3132;42.622;23.328;2023-09-07T13:35:20;11.35;;;10.48;;
6197;SDS011;3132;42.622;23.328;2023-09-07T13:37:46;10.73;;;10.00;;
6197;SDS011;3132;42.622;23.328;2023-09-07T13:40:11;10.80;;;9.90;;
6197;SDS011;3132;42.622;23.328;2023-09-07T13:42:38;12.02;;;11.02;;
6197;SDS011;3132;42.622;23.328;2023-09-07T13:45:04;10.73;;;10.00;;
6197;SDS011;3132;42.622;23.328;2023-09-07T13:47:29;12.32;;;11.43;;
6197;SDS011;3132;42.622;23.328;2023-09-07T13:49:55;11.27;;;10.27;;
6197;SDS011;3132;42.622;23.328;2023-09-07T13:52:20;12.32;;;10.63;;
6197;SDS011;3132;42.622;23.328;2023-09-07T13:54:46;10.07;;;9.38;;
6197;SDS011;3132;42.622;23.328;2023-09-07T13:57:11;10.43;;;9.73;;
6197;SDS011;3132;42.622;23.328;2023-09-07T13:59:36;11.38;;;10.60;;
6197;SDS011;3132;42.622;23.328;2023-09-07T14:02:02;15.73;;;10.95;;
6197;SDS011;3132;42.622;23.328;2023-09-07T14:04:27;11.85;;;10.75;;
6197;SDS011;3132;42.622;23.328;2023-09-07T14:06:53;11.20;;;10.35;;
6197;SDS011;3132;42.622;23.328;2023-09-07T14:09:19;11.93;;;10.98;;
6197;SDS011;3132;42.622;23.328;2023-09-07T14:11:46;12.85;;;11.65;;
6197;SDS011;3132;42.622;23.328;2023-09-07T14:14:11;17.33;;;13.40;;
6197;SDS011;3132;42.622;23.328;2023-09-07T14:16:37;14.15;;;12.40;;
6197;SDS011;3132;42.622;23.328;2023-09-07T14:19:02;12.85;;;11.65;;
6197;SDS011;3132;42.622;23.328;2023-09-07T14:21:28;17.80;;;14.55;;
6197;SDS011;3132;42.622;23.328;2023-09-07T14:23:53;16.77;;;12.60;;
6197;SDS011;3132;42.622;23.328;2023-09-07T14:26:18;13.48;;;12.18;;
6197;SDS011;3132;42.622;23.328;2023-09-07T14:28:44;32.80;;;19.13;;
6197;SDS011;3132;42.622;23.328;2023-09-07T14:31:09;15.95;;;14.10;;
6197;SDS011;3132;42.622;23.328;2023-09-07T14:33:35;13.68;;;12.23;;
6197;SDS011;3132;42.622;23.328;2023-09-07T14:36:06;14.13;;;12.00;;